Anchorage, Utah
Current Conditions -  °F | °C
As of 5:28 PM on Thursday 18 Dec 2014 (Local Time) from KHIF Reporting Station
Broken Clouds Broken Clouds  
Wind Chill: 37°   Ceiling: 8000
Heat Index: 37°   Visibility: 10mi
Dew Point: 28°   Wind: 2mph
Humidity: 70%   Direction: 270°W
Pressure: 30.15"   Gusts: NA
Location:  41.123°N, 112.063°W
Report Text: KHIF 190028Z 27002KT 10SM BKN080 03/M02 A3015 RMK AO2A
Loading
Personal Weather Stations






























Interactive Weather Map New forecast layout! Learn more

10-Day Weather Forecast

Advertisements
Track Severe Weather on mobile